Estación Fecha y Hora Temperatura Temperatura Mínima Temperatura Máxima Humedad Presión Velocidad del Viento Dirección del Viento Precipitación
Bulilla 12/06/2024 18:35 16.1 12.9 19.9 84 1018.2 8.6 WNW 0.6
Ciudad 24/06/2024 09:30 20.3 17.9 20.4 73 1015.9 2 E 0.0
Villa-Ventín 24/06/24 9:33 20.0 15.1 20.0 74 1011.5 0.0 257 0.0
Finca Hnos. Guerrero 24/06/24 9:30 20.7 17.2 20.7 72 1012.0 6.4 136 0.0
Finca Balaguer 24/06/2024 09:30 20.7 17.7 20.7 69 1018.8 4 WSW 0.0
Finca La Gloria 24/06/2024 09:30 19.8 16.6 20.0 71 1016.6 9.4 S 0.0
Hondo de Carboneras 24/06/2024 09:30 20.6 15.9 20.6 74 1016.3 7.20 SSW 0.0
Hondo de la Lagunilla 24/06/2024 09:33 22.0 16.5 22.0 68 1013.7 11.2 NE 0.0
La Boquera 21/06/2024 23:11 20.2 14.9 31.5 52 1022.7 9.4 S 0.0
La Encina 24/06/2024 09:32 21.2 17.3 21.2 74 1016.36 3.2 WSW 0.0
La Lagunilla 24/06/2024 09:32 20.9 17.9 20.9 62 1011.7 1.6 N 0.0
La Parrala 24/06/2024 09:33 20.9 18.0 20.9 70 1016.12 0.0 SSW 0.0
La Zafra 24/06/2024 09:30 20.0 16.7 20.0 75 1013.4 4.0 WNW 0.0
Las Quebradas 24/06/2024 09:33 21.7 17.2 22.0 69 1019.1 0.0 N 0.0
Las Virtudes 24/06/2024 09:32 21.4 16.5 21.4 74 1014.7 0.0 NW 0.0
Peña Rubia 24/06/2024 09:25 20.2 17.0 20.2 73 1019.0 0.0 SSE 0.0
Sierra Salinas 24/06/2024 09:30 14.5 12.7 15.6 94 1013.99 6.4 ESE 0.0
Sierra de La Villa 24/06/2024 09:30 18.4 16.2 18.8 77 1013.7 7.7 SW 0.0
Colonia de Sierra Salinas 24/06/2024 09:34 18.3 13.4 18.9 81 1014.0 5.4 SSW 0.0
Cabrera - Casa Anvers 24/06/2024 09:30 19.4 16.1 19.5 78 1016.9 5.4 SW 0.0